createdAt,value
2022-09-07T00:01:26.387Z,19.02
2022-09-07T00:03:59.714Z,19.34
2022-09-07T00:06:28.318Z,19.24
2022-09-07T00:08:57.578Z,19.19
2022-09-07T00:11:26.824Z,18.83
2022-09-07T00:13:56.140Z,18.68
2022-09-07T00:16:31.369Z,18.71
2022-09-07T00:19:02.633Z,19.12
2022-09-07T00:21:32.318Z,18.72
2022-09-07T00:24:01.418Z,19.18
2022-09-07T00:26:32.682Z,18.82
2022-09-07T00:29:04.045Z,18.90
2022-09-07T00:31:33.832Z,19.44
2022-09-07T00:34:04.100Z,19.36
2022-09-07T00:36:33.230Z,19.42
2022-09-07T00:39:02.698Z,19.18
2022-09-07T00:41:32.408Z,19.60
2022-09-07T00:44:39.658Z,19.37
2022-09-07T00:47:31.018Z,18.94
2022-09-07T00:50:06.018Z,19.33
2022-09-07T00:52:36.939Z,18.85
2022-09-07T00:55:11.899Z,19.20
2022-09-07T00:57:47.032Z,18.97
2022-09-07T01:00:16.523Z,18.78
2022-09-07T01:02:46.681Z,18.84
2022-09-07T01:05:28.318Z,18.98
2022-09-07T01:07:59.503Z,19.17
2022-09-07T01:10:35.133Z,19.24
2022-09-07T01:13:04.621Z,19.24
2022-09-07T01:16:20.716Z,19.39
2022-09-07T01:19:17.418Z,19.38
2022-09-07T01:22:35.099Z,19.43
2022-09-07T01:25:31.413Z,19.46
2022-09-07T01:28:03.823Z,19.72
2022-09-07T01:30:38.734Z,19.69
2022-09-07T01:33:16.693Z,19.38
2022-09-07T01:36:03.978Z,19.38
2022-09-07T01:38:46.218Z,19.90
2022-09-07T01:41:33.739Z,20.37
2022-09-07T01:44:36.845Z,20.15
2022-09-07T01:47:27.018Z,20.09
2022-09-07T01:50:22.448Z,20.46
2022-09-07T01:53:16.927Z,20.40
2022-09-07T01:55:57.006Z,20.47
2022-09-07T01:58:51.678Z,20.90
2022-09-07T02:01:36.500Z,20.97
2022-09-07T02:04:09.333Z,21.20
2022-09-07T02:06:52.138Z,21.47
2022-09-07T02:09:38.808Z,21.64
2022-09-07T02:12:33.329Z,21.80
2022-09-07T02:15:07.658Z,21.70
2022-09-07T02:17:44.584Z,22.26
2022-09-07T02:20:24.819Z,22.06
2022-09-07T02:23:03.178Z,22.80
2022-09-07T02:25:39.339Z,23.16
2022-09-07T02:28:18.517Z,23.26
2022-09-07T02:30:48.033Z,22.86
2022-09-07T02:33:17.279Z,23.36
2022-09-07T02:35:47.338Z,23.45
2022-09-07T02:38:16.940Z,23.63
2022-09-07T02:40:46.388Z,23.74
2022-09-07T02:43:15.979Z,23.77
2022-09-07T02:46:00.599Z,23.80
2022-09-07T02:48:52.743Z,24.46
2022-09-07T02:51:45.416Z,24.36
2022-09-07T02:54:56.298Z,24.45
2022-09-07T02:57:28.833Z,24.42
2022-09-07T03:00:03.895Z,24.60
2022-09-07T03:02:47.206Z,25.00
2022-09-07T03:05:28.781Z,25.00
2022-09-07T03:08:07.498Z,25.30
2022-09-07T03:10:42.129Z,25.66
2022-09-07T03:13:21.388Z,25.64
2022-09-07T03:15:55.482Z,25.73
2022-09-07T03:18:26.920Z,26.10
2022-09-07T03:20:57.417Z,26.19
2022-09-07T03:23:26.538Z,26.14
2022-09-07T03:25:55.985Z,26.26
2022-09-07T03:28:25.222Z,26.61
2022-09-07T03:30:55.053Z,26.76
2022-09-07T03:33:24.418Z,26.73
2022-09-07T03:36:02.842Z,27.06
2022-09-07T03:38:32.813Z,27.23
2022-09-07T03:41:08.147Z,27.51
2022-09-07T03:43:37.420Z,27.72
2022-09-07T03:46:08.498Z,27.72
2022-09-07T03:48:39.019Z,27.78
2022-09-07T03:51:13.578Z,28.08
2022-09-07T03:53:46.567Z,28.10
2022-09-07T03:56:19.979Z,28.28
2022-09-07T03:58:50.763Z,28.39
2022-09-07T04:01:25.804Z,28.50
2022-09-07T04:04:01.968Z,28.78
2022-09-07T04:06:33.098Z,29.07
2022-09-07T04:09:08.299Z,28.79
2022-09-07T04:11:37.420Z,29.01
2022-09-07T04:14:06.858Z,28.90
2022-09-07T04:16:36.223Z,29.05
2022-09-07T04:19:06.235Z,29.40
2022-09-07T04:21:38.339Z,29.49
2022-09-07T04:24:08.299Z,29.50
2022-09-07T04:26:38.382Z,30.17
2022-09-07T04:29:08.149Z,30.12
2022-09-07T04:31:38.174Z,30.44
2022-09-07T04:34:09.049Z,30.41
2022-09-07T04:36:38.218Z,30.78
2022-09-07T04:39:08.461Z,30.64
2022-09-07T04:41:38.004Z,30.59
2022-09-07T04:44:07.179Z,31.12
2022-09-07T04:46:39.178Z,30.58
2022-09-07T04:49:11.818Z,30.66
2022-09-07T04:51:43.979Z,30.84
2022-09-07T04:54:13.737Z,31.53
2022-09-07T04:56:43.338Z,31.60
2022-09-07T04:59:12.603Z,31.30
2022-09-07T05:01:42.029Z,31.62
2022-09-07T05:04:11.510Z,31.82
2022-09-07T05:06:40.779Z,31.72
2022-09-07T05:09:10.537Z,32.15
2022-09-07T05:11:39.978Z,31.99
2022-09-07T05:14:09.738Z,31.97
2022-09-07T05:16:39.137Z,32.61
2022-09-07T05:19:08.618Z,32.32
2022-09-07T05:21:37.834Z,32.25
2022-09-07T05:24:08.299Z,32.74
2022-09-07T05:26:39.666Z,33.03
2022-09-07T05:31:59.979Z,32.88
2022-09-07T05:34:29.823Z,33.32
2022-09-07T05:37:00.001Z,33.11
2022-09-07T05:39:29.826Z,33.74
2022-09-07T05:41:58.935Z,33.41
2022-09-07T05:44:43.869Z,33.92
2022-09-07T05:47:14.065Z,33.74
2022-09-07T05:49:43.660Z,34.12
2022-09-07T05:52:12.940Z,34.11
2022-09-07T05:54:42.233Z,34.64
2022-09-07T05:57:14.181Z,34.45
2022-09-07T05:59:43.403Z,34.91
2022-09-07T06:02:17.175Z,34.41
2022-09-07T06:04:46.653Z,34.43
2022-09-07T06:07:23.676Z,34.67
2022-09-07T06:12:48.984Z,34.42
2022-09-07T06:15:19.279Z,34.56
2022-09-07T06:17:48.780Z,34.98
2022-09-07T06:20:18.141Z,34.90
2022-09-07T06:22:47.409Z,34.88
2022-09-07T06:25:16.524Z,35.24
2022-09-07T06:27:45.738Z,35.02
2022-09-07T06:30:15.338Z,35.01
2022-09-07T06:32:45.086Z,35.04
2022-09-07T06:35:16.112Z,35.13
2022-09-07T06:37:45.898Z,35.32
2022-09-07T06:40:15.656Z,35.02
2022-09-07T06:42:44.848Z,35.12
2022-09-07T06:45:14.539Z,35.47
2022-09-07T06:47:43.683Z,35.31
2022-09-07T06:50:13.858Z,35.32
2022-09-07T06:55:32.778Z,35.82
2022-09-07T06:58:02.059Z,35.65
2022-09-07T07:00:31.183Z,35.73
2022-09-07T07:03:00.544Z,35.81
2022-09-07T07:05:30.015Z,36.00
2022-09-07T07:07:59.563Z,36.19
2022-09-07T07:10:29.099Z,36.18
2022-09-07T07:12:58.760Z,36.24
2022-09-07T07:15:32.486Z,36.33
2022-09-07T07:18:19.349Z,36.36
2022-09-07T07:20:49.904Z,36.42
2022-09-07T07:23:19.498Z,36.61
2022-09-07T07:25:48.938Z,36.72
2022-09-07T07:31:11.303Z,37.04
2022-09-07T07:33:43.103Z,37.12
2022-09-07T07:36:15.819Z,37.17
2022-09-07T07:39:02.937Z,37.25
2022-09-07T07:44:23.507Z,37.32
2022-09-07T07:46:53.493Z,37.42
2022-09-07T07:49:22.843Z,37.61
2022-09-07T08:02:55.019Z,37.82
2022-09-07T08:05:24.208Z,37.95
2022-09-07T08:07:53.539Z,37.70
2022-09-07T08:10:23.659Z,37.99
2022-09-07T08:12:53.123Z,37.78
2022-09-07T08:15:25.358Z,38.05
2022-09-07T08:17:54.698Z,38.40
2022-09-07T08:20:24.620Z,38.24
2022-09-07T08:22:54.664Z,38.47
2022-09-07T08:25:23.905Z,38.60
2022-09-07T08:27:53.264Z,38.88
2022-09-07T08:30:23.788Z,38.96
2022-09-07T08:32:53.259Z,39.07
2022-09-07T08:35:22.454Z,39.06
2022-09-07T08:37:51.798Z,39.30
2022-09-07T08:40:22.195Z,39.57
2022-09-07T08:43:22.699Z,39.84
2022-09-07T08:45:56.434Z,39.57
2022-09-07T08:48:34.541Z,40.31
2022-09-07T08:51:24.535Z,40.30
2022-09-07T08:53:54.134Z,40.70
2022-09-07T08:56:33.909Z,41.12
2022-09-07T08:59:13.262Z,41.65
2022-09-07T09:02:27.014Z,42.30
2022-09-07T09:05:16.422Z,42.45
2022-09-07T09:07:58.378Z,43.26
2022-09-07T09:10:39.338Z,43.39
2022-09-07T09:13:41.578Z,43.29
2022-09-07T09:16:46.393Z,43.63
2022-09-07T09:19:18.534Z,44.03
2022-09-07T09:21:48.778Z,44.44
2022-09-07T09:24:21.005Z,44.64
2022-09-07T09:26:56.303Z,45.01
2022-09-07T09:29:26.065Z,45.16
2022-09-07T09:31:55.984Z,45.35
2022-09-07T09:34:29.433Z,45.88
2022-09-07T09:37:00.342Z,46.23
2022-09-07T09:39:32.297Z,46.38
2022-09-07T09:42:15.971Z,46.56
2022-09-07T09:44:47.019Z,46.82
2022-09-07T09:47:35.573Z,46.92
2022-09-07T09:52:29.082Z,46.92
2022-09-07T09:53:08.108Z,47.17
2022-09-07T09:55:39.799Z,47.70
2022-09-07T10:03:08.522Z,48.06
2022-09-07T10:04:25.870Z,48.15
2022-09-07T10:07:38.828Z,48.11
2022-09-07T10:10:08.700Z,48.46
2022-09-07T10:12:40.300Z,48.65
2022-09-07T10:15:26.198Z,48.56
2022-09-07T10:17:55.827Z,48.98
2022-09-07T10:20:32.273Z,49.13
2022-09-07T10:23:03.338Z,49.27
2022-09-07T10:25:36.350Z,49.00
2022-09-07T10:28:22.076Z,49.54
2022-09-07T10:31:17.023Z,49.35
2022-09-07T10:36:46.538Z,49.41
2022-09-07T10:39:29.774Z,49.97
2022-09-07T10:42:28.513Z,49.76
2022-09-07T10:45:20.210Z,49.87
2022-09-07T10:47:55.289Z,50.10
2022-09-07T10:51:00.051Z,50.55
2022-09-07T10:53:44.653Z,50.82
2022-09-07T10:56:29.643Z,50.57
2022-09-07T10:59:23.937Z,51.04
2022-09-07T11:01:59.983Z,50.99
2022-09-07T11:04:34.993Z,51.18
2022-09-07T11:07:32.618Z,51.69
2022-09-07T11:10:05.738Z,52.04
2022-09-07T11:12:39.989Z,51.63
2022-09-07T11:15:15.498Z,51.94
2022-09-07T11:17:54.379Z,52.44
2022-09-07T11:20:32.214Z,52.55
2022-09-07T11:23:17.588Z,52.67
2022-09-07T11:26:04.743Z,52.64
2022-09-07T11:31:49.098Z,53.38
2022-09-07T11:34:27.894Z,53.06
2022-09-07T11:37:38.769Z,53.73
2022-09-07T11:40:25.704Z,53.54
2022-09-07T11:43:20.139Z,53.50
2022-09-07T11:45:59.400Z,53.65
2022-09-07T11:48:37.704Z,53.89
2022-09-07T11:51:37.907Z,53.66
2022-09-07T11:54:35.505Z,53.92
2022-09-07T11:57:21.421Z,53.98
2022-09-07T12:00:00.181Z,54.08
2022-09-07T12:03:01.915Z,54.35
2022-09-07T12:05:45.498Z,54.64
2022-09-07T12:08:21.420Z,54.61
2022-09-07T12:11:12.418Z,55.03
2022-09-07T12:13:48.459Z,54.64
2022-09-07T12:16:27.019Z,54.97
2022-09-07T12:19:26.618Z,55.00
2022-09-07T12:21:55.828Z,55.11
2022-09-07T12:24:49.904Z,55.11
2022-09-07T12:27:25.259Z,55.60
2022-09-07T12:30:02.769Z,55.54
2022-09-07T12:32:54.335Z,55.36
2022-09-07T12:35:31.339Z,55.82
2022-09-07T12:38:02.226Z,55.93
2022-09-07T12:40:31.434Z,56.08
2022-09-07T12:43:15.825Z,55.93
2022-09-07T12:45:51.125Z,56.20
2022-09-07T12:48:20.778Z,56.07
2022-09-07T12:51:12.458Z,56.31
2022-09-07T12:54:15.818Z,56.09
2022-09-07T13:00:22.924Z,56.38
2022-09-07T13:03:06.040Z,56.86
2022-09-07T13:05:54.895Z,56.42
2022-09-07T13:08:32.921Z,56.79
2022-09-07T13:11:39.672Z,56.76
2022-09-07T13:14:23.253Z,57.07
2022-09-07T13:17:31.024Z,57.06
2022-09-07T13:20:01.129Z,57.36
2022-09-07T13:22:33.361Z,57.08
2022-09-07T13:25:23.984Z,57.20
2022-09-07T13:28:24.754Z,57.55
2022-09-07T13:31:35.839Z,57.45
2022-09-07T13:34:39.652Z,57.82
2022-09-07T13:37:26.518Z,57.67
2022-09-07T13:39:59.501Z,57.78
2022-09-07T13:42:38.859Z,58.10
2022-09-07T13:45:28.543Z,58.10
2022-09-07T13:48:07.112Z,58.33
2022-09-07T13:50:45.103Z,58.53
2022-09-07T13:53:39.251Z,58.39
2022-09-07T13:56:47.019Z,58.56
2022-09-07T13:59:27.661Z,58.41
2022-09-07T14:01:58.610Z,58.42
2022-09-07T14:04:48.184Z,58.74
2022-09-07T14:07:26.058Z,58.70
2022-09-07T14:10:16.940Z,59.02
2022-09-07T14:12:52.748Z,58.63
2022-09-07T14:15:44.779Z,58.87
2022-09-07T14:18:20.300Z,58.88
2022-09-07T14:20:53.663Z,58.80
2022-09-07T14:23:31.640Z,58.91
2022-09-07T14:26:23.978Z,58.79
2022-09-07T14:28:55.819Z,59.26
2022-09-07T14:31:27.504Z,59.16
2022-09-07T14:33:59.339Z,59.26
2022-09-07T14:36:44.601Z,58.99
2022-09-07T14:39:17.955Z,59.14
2022-09-07T14:41:47.977Z,59.08
2022-09-07T14:44:35.583Z,58.75
2022-09-07T14:47:17.422Z,59.25
2022-09-07T14:49:55.685Z,58.92
2022-09-07T14:53:34.142Z,59.08
2022-09-07T14:55:40.779Z,58.82
2022-09-07T14:58:16.123Z,58.64
2022-09-07T15:03:42.935Z,58.36
2022-09-07T15:07:01.032Z,57.56
2022-09-07T15:09:03.245Z,56.98
2022-09-07T15:11:38.538Z,56.31
2022-09-07T15:14:12.244Z,55.86
2022-09-07T15:16:44.459Z,55.64
2022-09-07T15:19:23.188Z,54.95
2022-09-07T15:21:52.418Z,54.14
2022-09-07T15:24:21.719Z,54.12
2022-09-07T15:27:09.282Z,53.62
2022-09-07T15:29:38.603Z,53.30
2022-09-07T15:32:12.020Z,52.62
2022-09-07T15:34:41.483Z,52.32
2022-09-07T15:40:01.924Z,51.53
2022-09-07T15:45:21.258Z,50.68
2022-09-07T15:47:53.564Z,50.87
2022-09-07T15:50:23.831Z,50.68
2022-09-07T15:52:53.113Z,50.50
2022-09-07T15:55:22.505Z,50.28
2022-09-07T15:58:05.192Z,49.81
2022-09-07T16:00:39.824Z,49.52
2022-09-07T16:03:09.699Z,49.36
2022-09-07T16:05:45.579Z,48.92
2022-09-07T16:11:37.525Z,48.92
2022-09-07T16:14:06.354Z,48.73
2022-09-07T16:19:23.305Z,48.46
2022-09-07T16:21:51.700Z,48.56
2022-09-07T16:24:20.120Z,48.80
2022-09-07T16:26:48.529Z,48.69
2022-09-07T16:29:17.765Z,48.59
2022-09-07T16:34:34.985Z,48.88
2022-09-07T16:37:03.640Z,48.85
2022-09-07T16:39:32.381Z,48.36
2022-09-07T16:42:01.184Z,48.28
2022-09-07T16:44:30.138Z,48.18
2022-09-07T16:46:59.761Z,47.88
2022-09-07T16:49:29.894Z,47.96
2022-09-07T16:51:59.075Z,47.82
2022-09-07T16:54:27.956Z,47.46
2022-09-07T16:56:56.406Z,47.01
2022-09-07T16:59:27.776Z,47.25
2022-09-07T17:01:57.574Z,47.22
2022-09-07T17:04:26.384Z,47.33
2022-09-07T17:06:55.610Z,47.05
2022-09-07T17:09:27.822Z,47.51
2022-09-07T17:11:56.420Z,47.65
2022-09-07T17:14:24.925Z,48.03
2022-09-07T17:16:53.470Z,47.96
2022-09-07T17:19:30.421Z,47.61
2022-09-07T17:22:00.917Z,47.83
2022-09-07T17:24:31.905Z,47.91
2022-09-07T17:27:01.891Z,47.49
2022-09-07T17:29:36.731Z,47.67
2022-09-07T17:34:56.641Z,47.57
2022-09-07T17:37:25.691Z,47.50
2022-09-07T17:39:54.523Z,47.50
2022-09-07T17:42:23.536Z,47.60
2022-09-07T17:44:53.125Z,47.27
2022-09-07T17:47:22.031Z,47.53
2022-09-07T17:49:50.502Z,47.54
2022-09-07T17:52:18.991Z,47.56
2022-09-07T17:54:47.496Z,47.49
2022-09-07T17:57:15.925Z,47.12
2022-09-07T18:02:33.707Z,46.82
2022-09-07T18:05:03.492Z,47.14
2022-09-07T18:07:33.250Z,46.90
2022-09-07T18:10:01.727Z,46.75
2022-09-07T18:12:30.205Z,46.38
2022-09-07T18:14:58.855Z,46.57
2022-09-07T18:17:27.366Z,46.42
2022-09-07T18:19:56.055Z,46.15
2022-09-07T18:22:24.754Z,46.28
2022-09-07T18:24:53.675Z,46.10
2022-09-07T18:27:22.490Z,46.05
2022-09-07T18:29:50.856Z,45.69
2022-09-07T18:32:19.332Z,45.73
2022-09-07T18:34:50.601Z,45.72
2022-09-07T18:37:19.650Z,44.74
2022-09-07T18:39:49.621Z,45.05
2022-09-07T18:42:18.035Z,45.45
2022-09-07T18:47:36.385Z,44.64
2022-09-07T18:50:05.090Z,44.87
2022-09-07T18:55:23.890Z,44.05
2022-09-07T18:57:52.571Z,43.28
2022-09-07T19:00:21.065Z,43.62
2022-09-07T19:02:52.309Z,43.29
2022-09-07T19:08:09.732Z,42.56
2022-09-07T19:10:39.050Z,42.89
2022-09-07T19:13:07.500Z,42.53
2022-09-07T19:15:37.769Z,42.48
2022-09-07T19:18:07.593Z,42.24
2022-09-07T19:20:37.067Z,42.21
2022-09-07T19:23:06.294Z,41.84
2022-09-07T19:25:34.728Z,41.56
2022-09-07T19:28:03.337Z,40.96
2022-09-07T19:30:31.819Z,40.75
2022-09-07T19:33:04.113Z,40.34
2022-09-07T19:35:36.804Z,40.24
2022-09-07T19:38:05.671Z,40.18
2022-09-07T19:40:34.368Z,39.90
2022-09-07T19:43:02.865Z,39.54
2022-09-07T19:45:31.620Z,39.45
2022-09-07T19:48:00.135Z,38.64
2022-09-07T19:50:28.933Z,38.58
2022-09-07T19:52:57.405Z,38.07
2022-09-07T19:55:25.895Z,38.10
2022-09-07T19:57:54.371Z,37.87
2022-09-07T20:00:24.075Z,37.76
2022-09-07T20:02:53.570Z,37.50
2022-09-07T20:05:22.296Z,37.47
2022-09-07T20:07:51.010Z,36.60
2022-09-07T20:10:19.443Z,36.43
2022-09-07T20:12:48.140Z,36.09
2022-09-07T20:15:16.754Z,35.87
2022-09-07T20:17:45.257Z,35.63
2022-09-07T20:20:13.620Z,35.79
2022-09-07T20:22:42.101Z,35.51
2022-09-07T20:25:13.214Z,35.86
2022-09-07T20:27:42.182Z,35.25
2022-09-07T20:30:11.516Z,33.90
2022-09-07T20:32:40.127Z,34.23
2022-09-07T20:35:09.060Z,33.57
2022-09-07T20:37:37.855Z,33.15
2022-09-07T20:40:07.509Z,32.52
2022-09-07T20:42:36.144Z,33.03
2022-09-07T20:45:04.929Z,32.04
2022-09-07T20:47:33.421Z,32.43
2022-09-07T20:50:01.849Z,32.21
2022-09-07T20:52:30.355Z,31.64
2022-09-07T20:54:58.791Z,31.37
2022-09-07T20:57:27.268Z,30.67
2022-09-07T20:59:55.813Z,30.18
2022-09-07T21:02:24.332Z,30.44
2022-09-07T21:04:53.252Z,29.51
2022-09-07T21:07:21.716Z,28.93
2022-09-07T21:09:50.781Z,28.94
2022-09-07T21:12:19.174Z,28.28
2022-09-07T21:14:47.921Z,27.02
2022-09-07T21:17:16.452Z,25.16
2022-09-07T21:19:44.846Z,26.64
2022-09-07T21:22:13.241Z,26.71
2022-09-07T21:24:41.732Z,26.75
2022-09-07T21:27:10.196Z,26.07
2022-09-07T21:29:38.601Z,25.42
2022-09-07T21:32:07.160Z,25.09
2022-09-07T21:34:35.816Z,24.55
2022-09-07T21:37:04.301Z,24.88
2022-09-07T21:39:32.813Z,23.75
2022-09-07T21:42:01.301Z,23.92
2022-09-07T21:44:29.862Z,24.34
2022-09-07T21:46:58.458Z,23.98
2022-09-07T21:49:27.011Z,23.64
2022-09-07T21:51:55.470Z,23.39
2022-09-07T21:54:24.025Z,23.38
2022-09-07T21:56:54.306Z,23.09
2022-09-07T21:59:23.472Z,23.65
2022-09-07T22:01:52.041Z,22.61
2022-09-07T22:04:20.610Z,22.23
2022-09-07T22:06:49.096Z,22.15
2022-09-07T22:09:17.743Z,22.01
2022-09-07T22:11:46.374Z,21.40
2022-09-07T22:14:16.682Z,22.12
2022-09-07T22:16:45.235Z,21.68
2022-09-07T22:19:13.762Z,21.69
2022-09-07T22:21:42.208Z,21.43
2022-09-07T22:24:13.575Z,20.91
2022-09-07T22:26:42.206Z,20.82
2022-09-07T22:29:13.507Z,21.13
2022-09-07T22:31:43.041Z,21.41
2022-09-07T22:34:12.032Z,20.37
2022-09-07T22:36:45.422Z,20.62
2022-09-07T22:39:15.090Z,21.01
2022-09-07T22:41:45.247Z,21.10
2022-09-07T22:44:16.073Z,21.49
2022-09-07T22:46:46.434Z,21.50
2022-09-07T22:49:16.947Z,22.21
2022-09-07T22:51:46.610Z,22.51
2022-09-07T22:54:15.481Z,22.13
2022-09-07T22:56:44.255Z,22.71
2022-09-07T22:59:14.825Z,23.07
2022-09-07T23:01:43.780Z,23.46
2022-09-07T23:04:14.294Z,23.11
2022-09-07T23:06:44.911Z,23.26
2022-09-07T23:09:19.491Z,23.09
2022-09-07T23:11:49.110Z,23.13
2022-09-07T23:14:20.765Z,23.50
2022-09-07T23:16:50.375Z,23.64
2022-09-07T23:19:21.363Z,23.80
2022-09-07T23:21:50.155Z,23.54
2022-09-07T23:24:20.295Z,23.52
2022-09-07T23:26:49.411Z,22.88
2022-09-07T23:29:18.210Z,22.93
2022-09-07T23:31:48.154Z,22.40
2022-09-07T23:34:17.416Z,22.46
2022-09-07T23:36:45.986Z,22.32
2022-09-07T23:39:14.644Z,22.12
2022-09-07T23:41:43.121Z,22.37
2022-09-07T23:44:11.956Z,21.81
2022-09-07T23:46:40.701Z,21.54
2022-09-07T23:49:09.137Z,20.88
2022-09-07T23:51:37.575Z,21.44
2022-09-07T23:54:06.310Z,21.19
2022-09-07T23:56:34.806Z,21.26
2022-09-07T23:59:03.336Z,21.03
